createdAt,value
2018-06-11T00:01:48.075Z,19.80
2018-06-11T00:04:16.610Z,19.80
2018-06-11T00:06:45.173Z,19.80
2018-06-11T00:09:13.761Z,19.80
2018-06-11T00:11:42.307Z,19.70
2018-06-11T00:14:10.962Z,19.70
2018-06-11T00:16:39.439Z,19.70
2018-06-11T00:19:08.045Z,19.60
2018-06-11T00:21:36.691Z,19.60
2018-06-11T00:24:05.370Z,19.60
2018-06-11T00:26:33.905Z,19.60
2018-06-11T00:29:02.501Z,19.50
2018-06-11T00:31:30.978Z,19.50
2018-06-11T00:33:59.508Z,19.50
2018-06-11T00:36:28.135Z,19.50
2018-06-11T00:38:56.715Z,19.50
2018-06-11T00:41:25.272Z,19.50
2018-06-11T00:43:53.793Z,19.40
2018-06-11T00:46:22.324Z,19.40
2018-06-11T00:48:50.860Z,19.40
2018-06-11T00:51:19.361Z,19.40
2018-06-11T00:53:47.852Z,19.40
2018-06-11T00:58:44.572Z,19.40
2018-06-11T01:01:13.132Z,19.30
2018-06-11T01:03:41.630Z,19.30
2018-06-11T01:06:10.153Z,19.30
2018-06-11T01:08:38.646Z,19.30
2018-06-11T01:11:07.252Z,19.20
2018-06-11T01:13:35.750Z,19.20
2018-06-11T01:16:04.332Z,19.10
2018-06-11T01:18:32.824Z,19.10
2018-06-11T01:21:01.383Z,19.10
2018-06-11T01:23:29.859Z,19.10
2018-06-11T01:25:58.466Z,19.00
2018-06-11T01:28:27.132Z,19.00
2018-06-11T01:30:55.628Z,19.00
2018-06-11T01:33:24.354Z,19.00
2018-06-11T01:35:53.067Z,18.90
2018-06-11T01:38:21.639Z,19.00
2018-06-11T01:40:50.146Z,18.90
2018-06-11T01:43:18.656Z,18.90
2018-06-11T01:45:47.232Z,18.90
2018-06-11T01:48:15.791Z,18.90
2018-06-11T01:50:44.534Z,18.90
2018-06-11T01:53:13.264Z,18.80
2018-06-11T01:55:41.765Z,18.80
2018-06-11T01:58:10.355Z,18.70
2018-06-11T02:00:38.904Z,18.60
2018-06-11T02:05:35.770Z,18.50
2018-06-11T02:08:04.461Z,18.50
2018-06-11T02:10:33.024Z,18.40
2018-06-11T02:13:01.636Z,18.50
2018-06-11T02:15:30.147Z,18.40
2018-06-11T02:17:58.673Z,18.40
2018-06-11T02:20:27.211Z,18.30
2018-06-11T02:22:55.815Z,18.20
2018-06-11T02:25:24.352Z,18.20
2018-06-11T02:27:52.913Z,18.20
2018-06-11T02:30:21.444Z,18.20
2018-06-11T02:32:49.946Z,18.20
2018-06-11T02:35:18.531Z,18.10
2018-06-11T02:37:47.339Z,18.10
2018-06-11T02:40:16.047Z,18.10
2018-06-11T02:42:44.552Z,18.10
2018-06-11T02:45:13.084Z,18.00
2018-06-11T02:47:41.740Z,18.00
2018-06-11T02:50:10.318Z,18.00
2018-06-11T02:52:39.054Z,17.90
2018-06-11T02:55:07.628Z,17.90
2018-06-11T02:57:36.164Z,17.90
2018-06-11T03:00:04.929Z,17.80
2018-06-11T03:02:33.422Z,17.80
2018-06-11T03:05:02.010Z,17.80
2018-06-11T03:07:30.693Z,17.80
2018-06-11T03:09:59.179Z,17.80
2018-06-11T03:12:27.867Z,17.80
2018-06-11T03:14:56.377Z,17.70
2018-06-11T03:17:24.920Z,17.70
2018-06-11T03:19:53.546Z,17.70
2018-06-11T03:22:22.216Z,17.70
2018-06-11T03:24:50.852Z,17.70
2018-06-11T03:27:19.356Z,17.70
2018-06-11T03:29:47.889Z,17.70
2018-06-11T03:32:16.616Z,17.70
2018-06-11T03:34:45.143Z,17.70
2018-06-11T03:37:13.697Z,17.70
2018-06-11T03:39:42.212Z,17.80
2018-06-11T03:42:10.708Z,17.70
2018-06-11T03:44:39.211Z,17.70
2018-06-11T03:49:35.879Z,17.50
2018-06-11T03:52:04.440Z,17.60
2018-06-11T03:54:32.960Z,17.60
2018-06-11T03:57:01.765Z,17.60
2018-06-11T03:59:30.243Z,17.70
2018-06-11T04:01:58.772Z,17.70
2018-06-11T04:04:27.271Z,17.70
2018-06-11T04:06:55.785Z,17.70
2018-06-11T04:09:24.339Z,17.80
2018-06-11T04:11:52.872Z,17.80
2018-06-11T04:14:21.526Z,17.90
2018-06-11T04:16:50.143Z,17.90
2018-06-11T04:19:18.642Z,18.00
2018-06-11T04:21:47.188Z,18.10
2018-06-11T04:24:15.666Z,18.00
2018-06-11T04:26:44.249Z,18.00
2018-06-11T04:29:12.862Z,18.10
2018-06-11T04:31:41.534Z,18.00
2018-06-11T04:34:10.034Z,18.10
2018-06-11T04:36:38.660Z,18.10
2018-06-11T04:39:08.166Z,18.10
2018-06-11T04:44:04.883Z,18.20
2018-06-11T04:46:33.412Z,18.40
2018-06-11T04:49:01.920Z,18.60
2018-06-11T04:51:30.617Z,18.60
2018-06-11T04:53:59.452Z,18.50
2018-06-11T04:56:29.175Z,18.50
2018-06-11T04:58:57.688Z,18.60
2018-06-11T05:01:26.354Z,18.70
2018-06-11T05:03:54.956Z,18.80
2018-06-11T05:06:23.459Z,18.80
2018-06-11T05:08:52.170Z,18.90
2018-06-11T05:11:20.702Z,19.00
2018-06-11T05:13:49.337Z,18.90
2018-06-11T05:16:17.936Z,19.10
2018-06-11T05:18:46.561Z,19.40
2018-06-11T05:21:15.090Z,19.50
2018-06-11T05:23:43.644Z,19.60
2018-06-11T05:26:12.151Z,19.90
2018-06-11T05:28:40.945Z,20.00
2018-06-11T05:31:09.439Z,20.50
2018-06-11T05:33:37.956Z,20.30
2018-06-11T05:36:06.507Z,20.40
2018-06-11T05:38:35.038Z,20.00
2018-06-11T05:41:03.764Z,19.90
2018-06-11T05:43:32.301Z,19.80
2018-06-11T05:46:00.848Z,19.70
2018-06-11T05:48:29.527Z,19.80
2018-06-11T05:50:58.128Z,19.80
2018-06-11T05:53:26.672Z,20.20
2018-06-11T05:55:55.197Z,20.80
2018-06-11T05:58:23.844Z,21.40
2018-06-11T06:00:52.466Z,21.80
2018-06-11T06:03:21.187Z,21.80
2018-06-11T06:05:49.713Z,22.20
2018-06-11T06:08:18.295Z,22.40
2018-06-11T06:10:46.938Z,22.10
2018-06-11T06:13:15.607Z,22.80
2018-06-11T06:15:44.120Z,23.00
2018-06-11T06:18:12.687Z,23.30
2018-06-11T06:20:41.268Z,23.30
2018-06-11T06:23:09.979Z,23.30
2018-06-11T06:25:38.493Z,23.40
2018-06-11T06:28:07.221Z,23.10
2018-06-11T06:30:35.807Z,23.30
2018-06-11T06:33:04.436Z,23.30
2018-06-11T06:35:33.007Z,23.50
2018-06-11T06:38:01.495Z,23.40
2018-06-11T06:40:30.073Z,23.80
2018-06-11T06:42:58.700Z,24.20
2018-06-11T06:45:27.382Z,23.60
2018-06-11T06:47:55.927Z,23.00
2018-06-11T06:50:24.596Z,23.00
2018-06-11T06:52:53.088Z,23.00
2018-06-11T06:55:21.766Z,23.30
2018-06-11T06:57:50.996Z,23.60
2018-06-11T07:00:19.464Z,23.80
2018-06-11T07:02:47.968Z,24.30
2018-06-11T07:05:16.524Z,24.10
2018-06-11T07:07:45.089Z,24.10
2018-06-11T07:10:13.643Z,23.40
2018-06-11T07:12:42.251Z,23.10
2018-06-11T07:15:10.874Z,22.70
2018-06-11T07:17:39.597Z,22.50
2018-06-11T07:20:08.202Z,22.80
2018-06-11T07:22:36.804Z,22.10
2018-06-11T07:25:05.371Z,22.20
2018-06-11T07:27:33.894Z,22.30
2018-06-11T07:30:02.620Z,22.50
2018-06-11T07:32:31.188Z,22.50
2018-06-11T07:34:59.928Z,22.50
2018-06-11T07:37:28.450Z,22.60
2018-06-11T07:39:57.014Z,22.50
2018-06-11T07:42:25.554Z,22.60
2018-06-11T07:44:54.094Z,22.80
2018-06-11T07:47:23.002Z,22.50
2018-06-11T07:49:51.592Z,22.70
2018-06-11T07:52:20.173Z,22.80
2018-06-11T07:54:48.716Z,22.90
2018-06-11T07:57:17.219Z,23.30
2018-06-11T07:59:45.727Z,23.60
2018-06-11T08:02:14.208Z,23.10
2018-06-11T08:04:42.955Z,22.80
2018-06-11T08:07:11.490Z,22.80
2018-06-11T08:09:40.027Z,22.80
2018-06-11T08:12:08.525Z,23.10
2018-06-11T08:14:37.104Z,23.00
2018-06-11T08:17:05.896Z,22.70
2018-06-11T08:19:34.616Z,22.90
2018-06-11T08:22:04.037Z,22.70
2018-06-11T08:24:32.723Z,22.70
2018-06-11T08:27:01.359Z,22.60
2018-06-11T08:29:29.891Z,22.70
2018-06-11T08:31:58.524Z,22.90
2018-06-11T08:34:27.043Z,23.20
2018-06-11T08:36:55.599Z,23.20
2018-06-11T08:39:24.123Z,23.60
2018-06-11T08:41:52.707Z,23.60
2018-06-11T08:44:21.247Z,23.70
2018-06-11T08:46:49.804Z,23.70
2018-06-11T08:49:18.494Z,23.70
2018-06-11T08:51:47.001Z,23.50
2018-06-11T08:56:44.042Z,23.60
2018-06-11T08:59:12.644Z,23.50
2018-06-11T09:01:41.194Z,23.30
2018-06-11T09:04:09.765Z,22.90
2018-06-11T09:06:38.584Z,22.70
2018-06-11T09:09:08.877Z,22.90
2018-06-11T09:11:37.614Z,22.90
2018-06-11T09:14:06.159Z,22.80
2018-06-11T09:16:34.669Z,23.20
2018-06-11T09:19:03.283Z,23.10
2018-06-11T09:21:31.837Z,23.30
2018-06-11T09:24:00.335Z,23.30
2018-06-11T09:26:28.856Z,23.50
2018-06-11T09:28:57.415Z,24.10
2018-06-11T09:31:25.923Z,24.20
2018-06-11T09:33:54.571Z,23.90
2018-06-11T09:36:23.215Z,23.90
2018-06-11T09:38:51.792Z,23.80
2018-06-11T09:41:20.299Z,24.10
2018-06-11T09:43:48.869Z,23.90
2018-06-11T09:46:17.305Z,24.20
2018-06-11T09:48:45.855Z,24.30
2018-06-11T09:51:14.527Z,23.70
2018-06-11T09:53:43.037Z,23.60
2018-06-11T09:56:11.641Z,23.50
2018-06-11T09:58:40.155Z,24.10
2018-06-11T10:01:08.783Z,24.00
2018-06-11T10:03:37.437Z,24.10
2018-06-11T10:06:06.164Z,24.00
2018-06-11T10:08:35.002Z,23.90
2018-06-11T10:11:04.068Z,23.60
2018-06-11T10:13:32.597Z,23.40
2018-06-11T10:16:01.168Z,23.40
2018-06-11T10:18:29.892Z,23.50
2018-06-11T10:25:55.599Z,23.30
2018-06-11T10:28:24.147Z,23.50
2018-06-11T10:30:52.831Z,23.40
2018-06-11T10:33:21.425Z,23.30
2018-06-11T10:35:49.940Z,23.50
2018-06-11T10:38:18.566Z,23.60
2018-06-11T10:40:47.263Z,23.80
2018-06-11T10:43:15.812Z,23.90
2018-06-11T10:45:44.453Z,24.30
2018-06-11T10:48:13.018Z,24.30
2018-06-11T10:50:41.577Z,24.30
2018-06-11T10:53:10.312Z,24.10
2018-06-11T10:55:38.823Z,24.10
2018-06-11T10:58:07.506Z,24.10
2018-06-11T11:00:35.986Z,24.10
2018-06-11T11:03:04.720Z,24.00
2018-06-11T11:08:01.483Z,24.00
2018-06-11T11:10:30.055Z,24.10
2018-06-11T11:12:58.629Z,24.00
2018-06-11T11:15:27.143Z,24.00
2018-06-11T11:17:55.824Z,24.00
2018-06-11T11:20:24.424Z,24.20
2018-06-11T11:22:52.966Z,24.50
2018-06-11T11:27:49.667Z,24.40
2018-06-11T11:30:18.311Z,24.20
2018-06-11T11:32:46.859Z,24.20
2018-06-11T11:35:15.395Z,24.40
2018-06-11T11:37:43.933Z,24.60
2018-06-11T11:40:12.459Z,24.70
2018-06-11T11:42:40.988Z,25.00
2018-06-11T11:45:09.636Z,25.10
2018-06-11T11:47:38.199Z,25.00
2018-06-11T11:52:35.321Z,24.50
2018-06-11T11:55:03.995Z,24.40
2018-06-11T11:57:32.504Z,24.40
2018-06-11T12:00:01.064Z,24.50
2018-06-11T12:02:29.646Z,24.30
2018-06-11T12:04:58.256Z,24.40
2018-06-11T12:07:26.820Z,24.30
2018-06-11T12:09:55.364Z,24.60
2018-06-11T12:12:23.900Z,24.60
2018-06-11T12:14:52.585Z,24.60
2018-06-11T12:17:21.105Z,24.70
2018-06-11T12:19:49.755Z,24.60
2018-06-11T12:22:18.280Z,24.70
2018-06-11T12:24:46.876Z,24.80
2018-06-11T12:27:15.516Z,24.80
2018-06-11T12:29:44.136Z,24.70
2018-06-11T12:32:12.638Z,24.70
2018-06-11T12:34:41.173Z,24.80
2018-06-11T12:37:09.703Z,24.90
2018-06-11T12:39:38.281Z,24.80
2018-06-11T12:42:06.765Z,25.10
2018-06-11T12:44:35.538Z,25.10
2018-06-11T12:49:32.292Z,25.30
2018-06-11T12:52:01.038Z,25.50
2018-06-11T12:54:29.572Z,25.50
2018-06-11T12:56:58.306Z,25.50
2018-06-11T12:59:26.872Z,25.70
2018-06-11T13:01:55.367Z,25.50
2018-06-11T13:04:23.882Z,25.20
2018-06-11T13:06:52.770Z,25.00
2018-06-11T13:09:21.255Z,25.30
2018-06-11T13:11:49.760Z,25.40
2018-06-11T13:19:14.813Z,25.60
2018-06-11T13:21:43.468Z,25.70
2018-06-11T13:24:11.968Z,25.50
2018-06-11T13:26:40.495Z,25.40
2018-06-11T13:29:09.056Z,25.30
2018-06-11T13:31:37.589Z,25.10
2018-06-11T13:34:06.247Z,25.10
2018-06-11T13:36:34.839Z,25.20
2018-06-11T13:39:05.737Z,25.30
2018-06-11T13:41:34.399Z,25.30
2018-06-11T13:44:03.176Z,25.00
2018-06-11T13:46:31.807Z,25.20
2018-06-11T13:49:00.325Z,25.30
2018-06-11T13:51:28.864Z,25.20
2018-06-11T13:53:57.614Z,25.40
2018-06-11T13:56:26.211Z,25.50
2018-06-11T13:58:54.755Z,25.40
2018-06-11T14:01:23.266Z,25.50
2018-06-11T14:03:51.895Z,25.20
2018-06-11T14:06:20.596Z,25.00
2018-06-11T14:08:49.302Z,24.60
2018-06-11T14:11:17.919Z,24.50
2018-06-11T14:13:46.470Z,24.50
2018-06-11T14:16:15.014Z,24.50
2018-06-11T14:18:43.524Z,24.30
2018-06-11T14:21:12.028Z,24.30
2018-06-11T14:23:41.587Z,24.30
2018-06-11T14:26:10.951Z,24.40
2018-06-11T14:28:39.708Z,24.30
2018-06-11T14:31:08.343Z,24.20
2018-06-11T14:33:36.854Z,24.20
2018-06-11T14:36:05.478Z,24.00
2018-06-11T14:38:34.061Z,23.80
2018-06-11T14:41:02.618Z,23.90
2018-06-11T14:43:31.109Z,23.80
2018-06-11T14:45:59.828Z,23.60
2018-06-11T14:48:28.319Z,23.60
2018-06-11T14:50:57.059Z,23.80
2018-06-11T14:53:25.803Z,23.50
2018-06-11T14:55:54.324Z,23.50
2018-06-11T14:58:22.967Z,23.40
2018-06-11T15:00:51.526Z,23.30
2018-06-11T15:03:20.234Z,23.40
2018-06-11T15:05:55.401Z,23.30
2018-06-11T15:08:23.926Z,23.30
2018-06-11T15:10:52.432Z,23.30
2018-06-11T15:13:21.051Z,23.30
2018-06-11T15:15:49.590Z,23.30
2018-06-11T15:18:18.103Z,23.30
2018-06-11T15:20:46.815Z,23.30
2018-06-11T15:23:15.308Z,23.40
2018-06-11T15:25:44.063Z,23.30
2018-06-11T15:28:12.921Z,23.40
2018-06-11T15:30:41.573Z,23.50
2018-06-11T15:33:10.104Z,23.40
2018-06-11T15:35:38.684Z,23.40
2018-06-11T15:38:07.463Z,23.20
2018-06-11T15:40:36.051Z,23.20
2018-06-11T15:43:04.596Z,23.30
2018-06-11T15:45:33.164Z,23.50
2018-06-11T15:48:01.799Z,23.50
2018-06-11T15:50:30.379Z,23.50
2018-06-11T15:52:59.054Z,23.70
2018-06-11T15:55:27.583Z,23.40
2018-06-11T15:57:56.404Z,23.40
2018-06-11T16:00:25.014Z,23.30
2018-06-11T16:02:53.495Z,23.30
2018-06-11T16:05:22.080Z,23.40
2018-06-11T16:07:50.671Z,23.40
2018-06-11T16:10:19.260Z,23.40
2018-06-11T16:12:47.845Z,23.30
2018-06-11T16:15:16.543Z,23.30
2018-06-11T16:17:45.225Z,23.30
2018-06-11T16:20:13.947Z,23.40
2018-06-11T16:22:42.570Z,23.30
2018-06-11T16:25:11.185Z,23.00
2018-06-11T16:27:39.843Z,23.10
2018-06-11T16:30:08.293Z,23.20
2018-06-11T16:32:36.972Z,23.10
2018-06-11T16:35:05.904Z,23.00
2018-06-11T16:37:34.546Z,22.90
2018-06-11T16:40:03.217Z,23.00
2018-06-11T16:42:31.876Z,22.80
2018-06-11T16:45:00.339Z,22.90
2018-06-11T16:47:28.835Z,22.70
2018-06-11T16:49:57.514Z,22.80
2018-06-11T16:52:26.080Z,22.70
2018-06-11T16:54:54.695Z,22.60
2018-06-11T16:57:23.251Z,22.60
2018-06-11T16:59:51.903Z,22.60
2018-06-11T17:02:20.651Z,22.60
2018-06-11T17:04:49.200Z,22.60
2018-06-11T17:07:17.805Z,22.60
2018-06-11T17:09:46.381Z,22.60
2018-06-11T17:12:14.849Z,22.40
2018-06-11T17:14:43.750Z,22.40
2018-06-11T17:17:12.244Z,22.40
2018-06-11T17:19:40.789Z,22.30
2018-06-11T17:22:09.326Z,22.20
2018-06-11T17:27:06.175Z,22.20
2018-06-11T17:29:34.752Z,22.20
2018-06-11T17:32:03.488Z,22.10
2018-06-11T17:34:32.077Z,22.00
2018-06-11T17:37:00.857Z,22.00
2018-06-11T17:39:29.527Z,22.00
2018-06-11T17:41:58.103Z,21.90
2018-06-11T17:44:26.786Z,21.90
2018-06-11T17:49:23.612Z,21.80
2018-06-11T17:51:52.357Z,21.80
2018-06-11T17:54:21.027Z,21.80
2018-06-11T17:56:49.548Z,21.90
2018-06-11T17:59:18.192Z,21.90
2018-06-11T18:01:46.752Z,21.90
2018-06-11T18:04:15.311Z,21.90
2018-06-11T18:06:43.844Z,21.80
2018-06-11T18:09:12.402Z,21.90
2018-06-11T18:11:40.975Z,22.00
2018-06-11T18:14:09.860Z,21.90
2018-06-11T18:16:38.920Z,22.00
2018-06-11T18:19:07.704Z,22.00
2018-06-11T18:21:36.250Z,21.90
2018-06-11T18:24:05.027Z,22.00
2018-06-11T18:26:33.690Z,21.90
2018-06-11T18:29:02.312Z,21.80
2018-06-11T18:31:30.871Z,21.60
2018-06-11T18:33:59.482Z,21.50
2018-06-11T18:36:28.184Z,21.60
2018-06-11T18:38:56.724Z,21.50
2018-06-11T18:41:25.360Z,21.50
2018-06-11T18:43:53.864Z,21.50
2018-06-11T18:46:22.476Z,21.50
2018-06-11T18:48:51.119Z,21.40
2018-06-11T18:51:19.627Z,21.40
2018-06-11T18:53:48.167Z,21.40
2018-06-11T18:56:16.861Z,21.40
2018-06-11T18:58:45.387Z,21.30
2018-06-11T19:01:14.063Z,21.30
2018-06-11T19:03:42.800Z,21.20
2018-06-11T19:06:11.436Z,21.20
2018-06-11T19:08:39.975Z,21.10
2018-06-11T19:13:37.212Z,21.10
2018-06-11T19:16:05.827Z,21.00
2018-06-11T19:18:34.355Z,21.00
2018-06-11T19:21:04.025Z,21.00
2018-06-11T19:23:32.538Z,20.90
2018-06-11T19:26:01.237Z,20.90
2018-06-11T19:28:29.809Z,20.90
2018-06-11T19:30:58.431Z,20.90
2018-06-11T19:33:26.997Z,20.90
2018-06-11T19:35:55.596Z,20.90
2018-06-11T19:38:24.206Z,20.90
2018-06-11T19:40:52.809Z,20.90
2018-06-11T19:43:21.454Z,20.90
2018-06-11T19:45:49.996Z,20.90
2018-06-11T19:48:18.648Z,20.90
2018-06-11T19:50:47.262Z,20.80
2018-06-11T19:53:15.780Z,20.70
2018-06-11T19:55:44.645Z,20.70
2018-06-11T19:58:13.273Z,20.60
2018-06-11T20:00:41.906Z,20.50
2018-06-11T20:03:10.469Z,20.50
2018-06-11T20:05:39.037Z,20.50
2018-06-11T20:08:07.750Z,20.40
2018-06-11T20:10:36.478Z,20.40
2018-06-11T20:13:05.038Z,20.40
2018-06-11T20:15:33.632Z,20.30
2018-06-11T20:18:02.151Z,20.30
2018-06-11T20:22:59.101Z,20.40
2018-06-11T20:25:27.656Z,20.40
2018-06-11T20:27:56.183Z,20.40
2018-06-11T20:30:24.712Z,20.30
2018-06-11T20:32:53.418Z,20.30
2018-06-11T20:35:21.892Z,20.30
2018-06-11T20:37:50.748Z,20.30
2018-06-11T20:40:19.415Z,20.30
2018-06-11T20:42:47.976Z,20.30
2018-06-11T20:45:16.497Z,20.30
2018-06-11T20:47:45.071Z,20.20
2018-06-11T20:50:13.641Z,20.20
2018-06-11T20:52:42.255Z,20.20
2018-06-11T20:55:10.936Z,20.20
2018-06-11T20:57:39.419Z,20.10
2018-06-11T21:00:08.047Z,20.10
2018-06-11T21:02:36.692Z,20.10
2018-06-11T21:05:05.648Z,20.10
2018-06-11T21:07:34.193Z,20.20
2018-06-11T21:10:02.943Z,20.20
2018-06-11T21:12:31.438Z,20.20
2018-06-11T21:15:00.039Z,20.10
2018-06-11T21:17:28.674Z,20.10
2018-06-11T21:19:57.235Z,20.10
2018-06-11T21:22:25.746Z,20.10
2018-06-11T21:27:22.574Z,20.00
2018-06-11T21:29:51.181Z,20.00
2018-06-11T21:32:19.973Z,19.90
2018-06-11T21:39:44.875Z,19.90
2018-06-11T21:42:13.460Z,19.90
2018-06-11T21:44:42.100Z,20.00
2018-06-11T21:47:10.674Z,19.90
2018-06-11T21:49:39.165Z,19.90
2018-06-11T21:52:07.795Z,19.90
2018-06-11T21:54:36.338Z,19.80
2018-06-11T21:57:05.299Z,19.80
2018-06-11T21:59:33.822Z,19.70
2018-06-11T22:02:02.549Z,19.60
2018-06-11T22:04:31.393Z,19.50
2018-06-11T22:06:59.971Z,19.40
2018-06-11T22:09:28.584Z,19.40
2018-06-11T22:11:57.252Z,19.40
2018-06-11T22:14:25.804Z,19.40
2018-06-11T22:16:54.465Z,19.40
2018-06-11T22:19:23.001Z,19.30
2018-06-11T22:21:51.529Z,19.30
2018-06-11T22:24:19.972Z,19.30
2018-06-11T22:26:48.475Z,19.20
2018-06-11T22:29:17.002Z,19.20
2018-06-11T22:31:45.560Z,19.20
2018-06-11T22:34:14.100Z,19.10
2018-06-11T22:36:42.739Z,19.10
2018-06-11T22:39:11.261Z,19.10
2018-06-11T22:41:39.817Z,19.10
2018-06-11T22:44:08.362Z,19.10
2018-06-11T22:46:36.994Z,19.10
2018-06-11T22:49:05.615Z,19.10
2018-06-11T22:51:34.204Z,19.00
2018-06-11T22:54:02.895Z,19.10
2018-06-11T22:56:31.392Z,19.00
2018-06-11T22:59:00.183Z,19.00
2018-06-11T23:01:28.689Z,19.00
2018-06-11T23:03:57.280Z,19.00
2018-06-11T23:06:25.835Z,19.10
2018-06-11T23:08:54.408Z,19.20
2018-06-11T23:11:23.025Z,19.20
2018-06-11T23:13:51.573Z,19.10
2018-06-11T23:16:20.237Z,19.10
2018-06-11T23:18:48.799Z,19.10
2018-06-11T23:21:17.527Z,19.10
2018-06-11T23:23:46.042Z,19.00
2018-06-11T23:26:14.856Z,18.90
2018-06-11T23:28:43.355Z,18.90
2018-06-11T23:31:11.893Z,18.90
2018-06-11T23:33:40.348Z,19.00
2018-06-11T23:36:09.024Z,19.00
2018-06-11T23:38:37.611Z,19.00
2018-06-11T23:41:06.211Z,19.00
2018-06-11T23:43:34.728Z,18.80
2018-06-11T23:46:03.263Z,18.80
2018-06-11T23:48:31.815Z,18.80
2018-06-11T23:51:00.315Z,18.80
2018-06-11T23:53:28.851Z,18.80
2018-06-11T23:55:57.395Z,18.80
2018-06-11T23:58:25.998Z,18.80
